Time;durP1;ratioP1;P1;durP2;ratioP2;P2;SDS_P1;SDS_P2;PMS_P1;PMS_P2;Temp;Humidity;BMP_temperature;BMP_pressure;BME280_temperature;BME280_humidity;BME280_pressure;Samples;Min_cycle;Max_cycle;Signal;HPM_P1;HPM_P2
2023/11/24 00:01:33;;;;;;;6.97;6.25;;;;;9.00;98369.00;;;;4917735;29;20099;-62
2023/11/24 00:03:59;;;;;;;7.43;5.93;;;;;9.00;98374.00;;;;4916090;29;20391;-61
2023/11/24 00:06:26;;;;;;;9.18;6.18;;;;;9.00;98364.00;;;;4917288;29;20056;-61
2023/11/24 00:08:53;;;;;;;7.65;5.75;;;;;9.00;98368.00;;;;4917590;29;20573;-61
2023/11/24 00:11:20;;;;;;;7.80;5.85;;;;;9.10;98362.00;;;;4931974;29;20131;-62
2023/11/24 00:13:47;;;;;;;9.38;6.80;;;;;9.10;98359.00;;;;4917044;29;20079;-62
2023/11/24 00:16:15;;;;;;;8.90;6.43;;;;;9.10;98361.00;;;;4931773;29;20498;-62
2023/11/24 00:18:41;;;;;;;8.18;6.30;;;;;9.20;98347.00;;;;4917449;29;20055;-63
2023/11/24 00:21:09;;;;;;;7.95;6.05;;;;;9.20;98340.00;;;;4917644;29;20462;-62
2023/11/24 00:23:37;;;;;;;7.72;6.45;;;;;9.20;98335.00;;;;4917189;29;20048;-62
2023/11/24 00:26:06;;;;;;;9.52;7.00;;;;;9.20;98323.00;;;;4917782;29;20054;-61
2023/11/24 00:28:36;;;;;;;8.55;6.63;;;;;9.20;98309.00;;;;4917435;29;20413;-64
2023/11/24 00:31:05;;;;;;;10.40;6.32;;;;;9.20;98309.00;;;;4915471;29;20056;-61
2023/11/24 00:33:34;;;;;;;8.57;6.82;;;;;9.20;98298.00;;;;4915504;29;20521;-61
2023/11/24 00:36:01;;;;;;;9.63;6.78;;;;;9.20;98287.00;;;;4915502;29;20086;-61
2023/11/24 00:38:28;;;;;;;9.82;6.78;;;;;9.20;98285.00;;;;4916757;29;20048;-62
2023/11/24 00:40:54;;;;;;;8.18;6.43;;;;;9.20;98289.00;;;;4915150;29;20107;-64
2023/11/24 00:43:22;;;;;;;7.60;6.07;;;;;9.20;98303.00;;;;4915397;29;20040;-65
2023/11/24 00:45:49;;;;;;;11.25;6.97;;;;;9.30;98298.00;;;;4916824;29;20417;-64
2023/11/24 00:48:16;;;;;;;8.25;6.43;;;;;9.30;98295.00;;;;4915700;29;20060;-65
2023/11/24 00:50:43;;;;;;;9.40;6.90;;;;;9.30;98291.00;;;;4915581;29;20520;-64
2023/11/24 00:53:09;;;;;;;7.60;6.13;;;;;9.40;98295.00;;;;4915423;29;20055;-65
2023/11/24 00:55:36;;;;;;;8.85;6.72;;;;;9.30;98299.00;;;;4915123;29;20454;-65
2023/11/24 00:58:03;;;;;;;6.45;5.35;;;;;9.40;98298.00;;;;4915694;29;20056;-64
2023/11/24 01:00:29;;;;;;;6.18;5.03;;;;;9.40;98287.00;;;;4931399;29;20462;-65
2023/11/24 01:02:58;;;;;;;6.53;4.65;;;;;9.40;98284.00;;;;4915473;29;20390;-63
2023/11/24 01:05:24;;;;;;;6.05;4.38;;;;;9.50;98282.00;;;;4914945;29;20111;-65
2023/11/24 01:07:51;;;;;;;5.25;4.18;;;;;9.60;98283.00;;;;4915372;29;20047;-65
2023/11/24 01:10:18;;;;;;;4.85;4.00;;;;;9.60;98278.00;;;;4915510;29;20087;-64
2023/11/24 01:12:44;;;;;;;6.32;4.30;;;;;9.70;98281.00;;;;4915384;29;20049;-65
2023/11/24 01:15:11;;;;;;;5.50;4.00;;;;;9.70;98282.00;;;;4914551;29;20071;-65
2023/11/24 01:17:38;;;;;;;4.47;3.83;;;;;9.70;98281.00;;;;4916105;29;20059;-63
2023/11/24 01:20:09;;;;;;;6.90;4.28;;;;;9.70;98280.00;;;;4914979;29;20059;-65
2023/11/24 01:22:36;;;;;;;6.53;4.32;;;;;9.80;98281.00;;;;4915080;29;20071;-64
2023/11/24 01:25:04;;;;;;;6.03;4.20;;;;;9.80;98297.00;;;;4914346;29;20091;-65
2023/11/24 01:27:32;;;;;;;4.38;3.80;;;;;9.70;98281.00;;;;4915007;29;20399;-65
2023/11/24 01:29:59;;;;;;;4.10;3.70;;;;;9.70;98269.00;;;;4916171;29;20039;-65
2023/11/24 01:32:26;;;;;;;4.85;3.60;;;;;9.70;98283.00;;;;4914802;29;20044;-64
2023/11/24 01:34:52;;;;;;;4.88;3.47;;;;;9.80;98291.00;;;;4914250;29;20048;-64
2023/11/24 01:37:22;;;;;;;4.25;3.28;;;;;9.80;98264.00;;;;4914792;29;20428;-64
2023/11/24 01:39:49;;;;;;;4.03;3.20;;;;;9.80;98253.00;;;;4930606;29;20052;-64
2023/11/24 01:42:16;;;;;;;4.03;3.15;;;;;9.80;98245.00;;;;4916176;29;20755;-64
2023/11/24 01:44:43;;;;;;;3.17;2.88;;;;;9.80;98248.00;;;;4915682;29;20055;-65
2023/11/24 01:47:11;;;;;;;2.92;2.53;;;;;9.80;98231.00;;;;4914567;29;20079;-64
2023/11/24 01:49:38;;;;;;;4.18;2.20;;;;;9.90;98233.00;;;;4915157;29;20494;-65
2023/11/24 01:52:06;;;;;;;2.90;2.08;;;;;9.90;98226.00;;;;4915880;29;20394;-64
2023/11/24 01:54:37;;;;;;;2.03;1.83;;;;;9.90;98228.00;;;;4918008;29;20056;-65
2023/11/24 01:57:07;;;;;;;2.13;1.95;;;;;9.90;98232.00;;;;4920466;29;20497;-64
2023/11/24 01:59:35;;;;;;;1.50;1.40;;;;;10.00;98232.00;;;;4918702;29;20048;-65
2023/11/24 02:02:02;;;;;;;1.60;1.50;;;;;10.00;98224.00;;;;4918592;29;20055;-65
2023/11/24 02:04:29;;;;;;;1.92;1.75;;;;;10.00;98213.00;;;;4917995;29;20059;-63
2023/11/24 02:06:57;;;;;;;2.92;2.03;;;;;10.00;98211.00;;;;4919039;29;20420;-64
2023/11/24 02:09:25;;;;;;;1.73;1.48;;;;;10.10;98218.00;;;;4918446;29;20075;-64
2023/11/24 02:11:52;;;;;;;2.13;1.35;;;;;10.10;98207.00;;;;4918318;29;20052;-65
2023/11/24 02:14:19;;;;;;;1.40;1.30;;;;;10.10;98185.00;;;;4917787;29;20058;-65
2023/11/24 02:16:46;;;;;;;1.42;1.33;;;;;10.10;98187.00;;;;4918347;29;20075;-65
2023/11/24 02:19:16;;;;;;;1.48;1.20;;;;;10.10;98189.00;;;;4918195;29;20056;-64
2023/11/24 02:21:45;;;;;;;1.10;1.00;;;;;10.10;98194.00;;;;4918209;29;20153;-65
2023/11/24 02:24:12;;;;;;;1.35;1.25;;;;;10.10;98199.00;;;;4918038;29;20044;-65
2023/11/24 02:26:40;;;;;;;2.83;1.17;;;;;10.10;98206.00;;;;4920046;29;20040;-64
2023/11/24 02:29:08;;;;;;;1.30;1.20;;;;;10.10;98208.00;;;;4919020;29;20115;-65
2023/11/24 02:31:35;;;;;;;1.67;1.15;;;;;10.20;98213.00;;;;4902227;29;20514;-65
2023/11/24 02:34:03;;;;;;;1.60;1.13;;;;;10.20;98207.00;;;;4918651;29;20040;-65
2023/11/24 02:36:32;;;;;;;1.83;1.30;;;;;10.20;98205.00;;;;4917863;29;20501;-64
2023/11/24 02:38:59;;;;;;;1.50;1.40;;;;;10.30;98199.00;;;;4918899;29;20048;-64
2023/11/24 02:41:26;;;;;;;2.95;1.48;;;;;10.20;98190.00;;;;4918370;29;20107;-65
2023/11/24 02:43:52;;;;;;;2.97;1.70;;;;;10.30;98188.00;;;;4918276;29;20071;-64
2023/11/24 02:46:20;;;;;;;1.10;1.00;;;;;10.30;98173.00;;;;4919015;29;20450;-64
2023/11/24 02:48:46;;;;;;;1.20;1.10;;;;;10.30;98168.00;;;;4919478;29;20059;-65
2023/11/24 02:51:14;;;;;;;1.23;1.13;;;;;10.30;98167.00;;;;4917821;29;20123;-65
2023/11/24 02:53:42;;;;;;;1.30;1.20;;;;;10.30;98165.00;;;;4918300;29;20046;-65
2023/11/24 02:56:09;;;;;;;1.35;1.25;;;;;10.30;98160.00;;;;4918867;29;20059;-65
2023/11/24 02:58:36;;;;;;;1.80;1.23;;;;;10.40;98161.00;;;;4918646;29;20082;-65
2023/11/24 03:01:05;;;;;;;1.30;1.20;;;;;10.40;98146.00;;;;4917413;29;20103;-65
2023/11/24 03:03:32;;;;;;;0.90;0.90;;;;;10.40;98149.00;;;;4916701;29;20076;-65
2023/11/24 03:06:06;;;;;;;2.20;1.10;;;;;10.40;98139.00;;;;4901240;29;20481;-64
2023/11/24 03:08:33;;;;;;;0.70;0.70;;;;;10.40;98147.00;;;;4917636;29;20146;-65
2023/11/24 03:11:05;;;;;;;1.30;1.00;;;;;10.40;98142.00;;;;4917637;29;20056;-65
2023/11/24 03:13:32;;;;;;;1.38;1.10;;;;;10.40;98145.00;;;;4917810;29;20557;-65
2023/11/24 03:15:59;;;;;;;1.17;0.90;;;;;10.50;98128.00;;;;4918620;29;20068;-65
2023/11/24 03:18:26;;;;;;;1.85;1.23;;;;;10.50;98129.00;;;;4917543;29;20104;-64
2023/11/24 03:20:52;;;;;;;1.20;1.10;;;;;10.50;98123.00;;;;4917009;29;20052;-65
2023/11/24 03:23:19;;;;;;;1.98;0.95;;;;;10.50;98118.00;;;;4932526;29;20181;-64
2023/11/24 03:25:46;;;;;;;1.20;1.10;;;;;10.50;98126.00;;;;4916442;29;20517;-64
2023/11/24 03:28:13;;;;;;;1.30;1.20;;;;;10.50;98120.00;;;;4917188;29;20470;-64
2023/11/24 03:30:39;;;;;;;1.20;1.10;;;;;10.50;98115.00;;;;4916916;29;20048;-65
2023/11/24 03:33:06;;;;;;;1.52;1.20;;;;;10.50;98103.00;;;;4901410;29;20056;-65
2023/11/24 03:35:33;;;;;;;1.30;1.20;;;;;10.60;98112.00;;;;4900626;29;20474;-65
2023/11/24 03:38:00;;;;;;;1.75;1.20;;;;;10.60;98099.00;;;;4917734;29;20561;-64
2023/11/24 03:40:26;;;;;;;1.55;1.20;;;;;10.60;98105.00;;;;4917642;29;20417;-63
2023/11/24 03:42:53;;;;;;;2.13;1.45;;;;;10.60;98102.00;;;;4932253;29;20450;-64
2023/11/24 03:45:19;;;;;;;2.75;1.35;;;;;10.60;98099.00;;;;4917113;29;20056;-64
2023/11/24 03:47:46;;;;;;;1.10;1.00;;;;;10.60;98105.00;;;;4917562;29;20047;-65
2023/11/24 03:50:14;;;;;;;1.83;1.38;;;;;10.60;98117.00;;;;4917756;29;20467;-64
2023/11/24 03:52:40;;;;;;;2.38;1.50;;;;;10.60;98144.00;;;;4916211;29;20054;-65
2023/11/24 03:55:09;;;;;;;2.10;1.67;;;;;10.60;98170.00;;;;4917334;29;20036;-65
2023/11/24 03:57:35;;;;;;;3.75;2.20;;;;;10.50;98164.00;;;;4917828;29;20525;-64
2023/11/24 04:00:02;;;;;;;1.23;0.75;;;;;10.40;98175.00;;;;4916288;29;20048;-65
2023/11/24 04:02:38;;;;;;;1.80;0.90;;;;;10.20;98176.00;;;;4917527;29;20108;-64
2023/11/24 04:05:05;;;;;;;2.38;1.20;;;;;10.20;98185.00;;;;4900329;29;20056;-65
2023/11/24 04:07:32;;;;;;;1.23;0.80;;;;;10.20;98167.00;;;;4915748;29;20052;-65
2023/11/24 04:09:59;;;;;;;1.83;0.98;;;;;10.10;98165.00;;;;4916059;29;20056;-64
2023/11/24 04:12:25;;;;;;;2.40;1.20;;;;;10.20;98165.00;;;;4915898;29;20071;-64
2023/11/24 04:14:52;;;;;;;6.35;1.42;;;;;10.30;98171.00;;;;4914935;29;20044;-65
2023/11/24 04:17:19;;;;;;;1.88;0.90;;;;;10.20;98169.00;;;;4916626;29;20072;-65
2023/11/24 04:19:45;;;;;;;2.17;0.70;;;;;10.10;98173.00;;;;4915846;29;20056;-63
2023/11/24 04:22:12;;;;;;;2.55;1.10;;;;;10.10;98172.00;;;;4916835;29;20545;-65
2023/11/24 04:24:40;;;;;;;4.32;1.30;;;;;10.10;98170.00;;;;4917476;29;20099;-65
2023/11/24 04:27:06;;;;;;;1.45;1.08;;;;;10.00;98168.00;;;;4916415;29;20410;-65
2023/11/24 04:29:33;;;;;;;4.72;1.20;;;;;9.90;98157.00;;;;4916577;29;20091;-65
2023/11/24 04:31:59;;;;;;;2.47;0.70;;;;;10.00;98156.00;;;;4916175;29;20556;-65
2023/11/24 04:34:26;;;;;;;5.30;1.80;;;;;10.10;98131.00;;;;4915552;29;20040;-65
2023/11/24 04:36:53;;;;;;;2.30;1.05;;;;;10.20;98133.00;;;;4916984;29;20048;-65
2023/11/24 04:39:20;;;;;;;4.03;1.15;;;;;10.20;98118.00;;;;4916682;29;20066;-64
2023/11/24 04:41:47;;;;;;;5.70;3.60;;;;;10.30;98112.00;;;;4917061;29;20505;-65
2023/11/24 04:44:14;;;;;;;4.75;2.90;;;;;10.30;98105.00;;;;4915181;29;20044;-64
2023/11/24 04:46:41;;;;;;;2.72;1.80;;;;;10.20;98105.00;;;;4916674;29;20139;-65
2023/11/24 04:49:07;;;;;;;1.92;1.60;;;;;10.30;98105.00;;;;4915447;29;20048;-65
2023/11/24 04:51:34;;;;;;;6.32;1.67;;;;;10.20;98107.00;;;;4916749;29;20131;-65
2023/11/24 04:54:04;;;;;;;2.50;1.17;;;;;10.10;98088.00;;;;4914746;29;20505;-65
2023/11/24 04:56:31;;;;;;;4.53;1.35;;;;;9.90;98098.00;;;;4915537;29;20079;-65
2023/11/24 04:58:57;;;;;;;2.65;1.40;;;;;10.00;98106.00;;;;4915603;29;20146;-64
2023/11/24 05:01:24;;;;;;;3.83;1.88;;;;;10.00;98100.00;;;;4916864;29;20127;-65
2023/11/24 05:03:57;;;;;;;4.18;1.48;;;;;10.20;98098.00;;;;4915909;29;20072;-65
2023/11/24 05:06:25;;;;;;;5.05;1.90;;;;;10.10;98091.00;;;;4916482;29;20059;-65
2023/11/24 05:08:51;;;;;;;4.22;1.67;;;;;10.20;98101.00;;;;4916500;29;20126;-65
2023/11/24 05:11:18;;;;;;;7.38;2.00;;;;;10.20;98114.00;;;;4916566;29;20048;-65
2023/11/24 05:13:46;;;;;;;3.60;1.75;;;;;10.20;98106.00;;;;4914717;29;20498;-65
2023/11/24 05:16:12;;;;;;;5.78;2.10;;;;;10.10;98100.00;;;;4916756;29;20068;-65
2023/11/24 05:18:39;;;;;;;7.88;2.42;;;;;10.10;98101.00;;;;4915480;29;20075;-65
2023/11/24 05:21:06;;;;;;;9.05;1.75;;;;;10.10;98105.00;;;;4916367;29;20513;-65
2023/11/24 05:23:33;;;;;;;7.65;1.95;;;;;10.00;98097.00;;;;4914742;29;20122;-62
2023/11/24 05:26:01;;;;;;;7.15;2.40;;;;;10.00;98097.00;;;;4916096;29;20044;-64
2023/11/24 05:28:28;;;;;;;5.10;2.10;;;;;10.10;98101.00;;;;4915855;29;20509;-64
2023/11/24 05:30:54;;;;;;;2.92;1.98;;;;;10.10;98106.00;;;;4916047;29;20052;-63
2023/11/24 05:33:21;;;;;;;6.95;2.03;;;;;10.10;98103.00;;;;4914621;29;20074;-62
2023/11/24 05:35:48;;;;;;;5.85;2.35;;;;;10.00;98098.00;;;;4930254;29;20044;-63
2023/11/24 05:38:15;;;;;;;9.65;3.10;;;;;10.00;98098.00;;;;4916091;29;20047;-63
2023/11/24 05:40:43;;;;;;;10.20;2.70;;;;;10.00;98100.00;;;;4899004;29;20048;-63
2023/11/24 05:43:10;;;;;;;9.00;2.47;;;;;9.90;98094.00;;;;4915942;29;20525;-62
2023/11/24 05:45:37;;;;;;;5.95;2.08;;;;;9.80;98071.00;;;;4913845;29;20198;-63
2023/11/24 05:48:04;;;;;;;7.32;2.33;;;;;9.80;98080.00;;;;4914488;29;20155;-61
2023/11/24 05:50:31;;;;;;;8.68;2.22;;;;;9.70;98079.00;;;;4914638;29;20421;-62
2023/11/24 05:52:57;;;;;;;5.45;2.60;;;;;9.60;98073.00;;;;4915565;29;20155;-62
2023/11/24 05:55:24;;;;;;;8.88;2.75;;;;;9.50;98076.00;;;;4914018;29;20075;-62
2023/11/24 05:57:50;;;;;;;9.10;2.22;;;;;9.40;98073.00;;;;4915725;29;20298;-61
2023/11/24 06:00:18;;;;;;;9.60;2.38;;;;;9.30;98065.00;;;;4914437;29;20059;-62
2023/11/24 06:02:46;;;;;;;8.32;2.53;;;;;9.20;98065.00;;;;4914597;29;20564;-63
2023/11/24 06:05:12;;;;;;;12.98;2.50;;;;;9.20;98065.00;;;;4913947;29;20494;-61
2023/11/24 06:07:42;;;;;;;14.73;2.58;;;;;9.10;98067.00;;;;4914230;29;20143;-62
2023/11/24 06:10:09;;;;;;;8.52;2.05;;;;;9.10;98073.00;;;;4914395;29;20087;-61
2023/11/24 06:12:36;;;;;;;7.55;2.00;;;;;9.00;98062.00;;;;4914451;29;20044;-61
2023/11/24 06:15:04;;;;;;;10.35;2.20;;;;;8.90;98058.00;;;;4913841;29;20041;-62
2023/11/24 06:17:32;;;;;;;7.95;2.35;;;;;8.90;98063.00;;;;4915715;29;20566;-62
2023/11/24 06:19:59;;;;;;;8.48;3.20;;;;;8.90;98066.00;;;;4914543;29;20092;-62
2023/11/24 06:22:25;;;;;;;9.98;2.70;;;;;8.90;98066.00;;;;4915522;29;20109;-62
2023/11/24 06:24:53;;;;;;;11.23;2.63;;;;;8.90;98063.00;;;;4915001;29;20099;-63
2023/11/24 06:27:22;;;;;;;8.15;2.08;;;;;8.90;98057.00;;;;4914312;29;20096;-62
2023/11/24 06:29:49;;;;;;;6.45;2.00;;;;;8.90;98072.00;;;;4915861;29;20075;-61
2023/11/24 06:32:16;;;;;;;8.65;2.17;;;;;8.90;98063.00;;;;4915602;29;20579;-61
2023/11/24 06:34:42;;;;;;;10.68;2.80;;;;;8.90;98075.00;;;;4913760;29;20115;-61
2023/11/24 06:37:09;;;;;;;10.55;2.67;;;;;8.80;98078.00;;;;4914222;29;20490;-62
2023/11/24 06:39:36;;;;;;;12.15;2.80;;;;;8.80;98084.00;;;;4915803;29;20417;-62
2023/11/24 06:42:04;;;;;;;11.65;2.53;;;;;8.80;98077.00;;;;4917719;29;20048;-61
2023/11/24 06:44:31;;;;;;;12.23;3.92;;;;;8.80;98094.00;;;;4918159;29;20509;-63
2023/11/24 06:47:00;;;;;;;10.98;2.47;;;;;8.80;98083.00;;;;4917517;29;20135;-61
2023/11/24 06:49:29;;;;;;;12.23;2.03;;;;;8.80;98089.00;;;;4918709;29;20043;-62
2023/11/24 06:51:56;;;;;;;11.68;2.10;;;;;8.80;98090.00;;;;4918392;29;20425;-61
2023/11/24 06:54:23;;;;;;;10.95;2.75;;;;;8.80;98091.00;;;;4917814;29;20111;-62
2023/11/24 06:56:50;;;;;;;7.75;2.08;;;;;8.80;98098.00;;;;4917737;29;20584;-61
2023/11/24 06:59:17;;;;;;;9.05;2.60;;;;;8.70;98094.00;;;;4918423;29;20561;-61
2023/11/24 07:01:44;;;;;;;16.70;2.88;;;;;8.70;98091.00;;;;4918645;29;20075;-61
2023/11/24 07:04:11;;;;;;;8.63;2.20;;;;;8.70;98092.00;;;;4916850;29;20409;-62
2023/11/24 07:06:37;;;;;;;12.98;2.65;;;;;8.60;98089.00;;;;4916984;29;20490;-63
2023/11/24 07:09:04;;;;;;;10.57;2.35;;;;;8.60;98088.00;;;;4917355;29;20497;-61
2023/11/24 07:11:31;;;;;;;8.10;2.58;;;;;8.70;98082.00;;;;4918628;29;20148;-64
2023/11/24 07:13:58;;;;;;;8.70;2.40;;;;;8.70;98082.00;;;;4916442;29;20054;-62
2023/11/24 07:16:25;;;;;;;10.55;2.50;;;;;8.70;98069.00;;;;4917345;29;20052;-62
2023/11/24 07:18:52;;;;;;;10.32;3.13;;;;;8.60;98072.00;;;;4918519;29;20107;-62
2023/11/24 07:21:21;;;;;;;17.77;3.53;;;;;8.60;98069.00;;;;4932607;29;20342;-61
2023/11/24 07:23:48;;;;;;;11.95;2.67;;;;;8.60;98061.00;;;;4917726;29;20040;-62
2023/11/24 07:26:18;;;;;;;11.18;2.72;;;;;8.60;98058.00;;;;4916952;29;20460;-62
2023/11/24 07:28:45;;;;;;;11.20;2.65;;;;;8.60;98068.00;;;;4917255;29;20048;-62
2023/11/24 07:31:16;;;;;;;13.93;3.33;;;;;8.60;98059.00;;;;4918395;29;20048;-62
2023/11/24 07:33:48;;;;;;;10.23;2.40;;;;;8.60;98059.00;;;;4916392;29;20056;-64
2023/11/24 07:36:17;;;;;;;12.85;2.38;;;;;8.60;98061.00;;;;4917120;29;20561;-66
2023/11/24 07:38:46;;;;;;;8.88;1.98;;;;;8.60;98061.00;;;;4916945;29;20040;-64
2023/11/24 07:41:20;;;;;;;13.15;2.70;;;;;8.60;98064.00;;;;4917356;29;20063;-65
2023/11/24 07:43:50;;;;;;;13.20;2.33;;;;;8.60;98064.00;;;;4916082;29;20446;-64
2023/11/24 07:46:17;;;;;;;9.15;3.30;;;;;8.70;98066.00;;;;4916738;29;20055;-64
2023/11/24 07:48:44;;;;;;;8.23;2.72;;;;;8.70;98057.00;;;;4917112;29;20056;-66
2023/11/24 07:51:11;;;;;;;8.90;3.00;;;;;8.80;98052.00;;;;4932348;29;20410;-64
2023/11/24 07:53:37;;;;;;;15.88;3.45;;;;;8.90;98061.00;;;;4916044;29;20086;-64
2023/11/24 07:56:05;;;;;;;15.98;3.08;;;;;8.90;98069.00;;;;4916545;29;20079;-64
2023/11/24 07:58:31;;;;;;;10.68;2.85;;;;;8.90;98076.00;;;;4916912;29;20048;-63
2023/11/24 08:01:04;;;;;;;9.93;2.97;;;;;8.90;98070.00;;;;4917846;29;20048;-64
2023/11/24 08:03:34;;;;;;;10.07;2.90;;;;;8.90;98067.00;;;;4917443;29;20044;-66
2023/11/24 08:06:06;;;;;;;12.13;3.22;;;;;9.00;98067.00;;;;4916429;29;20501;-64
2023/11/24 08:08:33;;;;;;;18.98;3.60;;;;;9.00;98069.00;;;;4916603;29;20135;-64
2023/11/24 08:11:00;;;;;;;10.57;3.03;;;;;8.80;98044.00;;;;4916602;29;20098;-64
2023/11/24 08:13:26;;;;;;;11.90;2.70;;;;;8.80;98044.00;;;;4917224;29;20116;-64
2023/11/24 08:15:53;;;;;;;10.43;2.78;;;;;8.90;98045.00;;;;4916411;29;20309;-64
2023/11/24 08:18:21;;;;;;;12.15;2.80;;;;;8.90;98038.00;;;;4916300;29;20054;-64
2023/11/24 08:20:47;;;;;;;10.25;2.88;;;;;9.00;98027.00;;;;4931613;29;20040;-62
2023/11/24 08:23:15;;;;;;;12.30;2.47;;;;;9.10;98029.00;;;;4917669;29;20040;-65
2023/11/24 08:25:42;;;;;;;9.90;2.42;;;;;9.10;98022.00;;;;4915360;29;20551;-64
2023/11/24 08:28:11;;;;;;;13.48;3.53;;;;;9.10;98039.00;;;;4916439;29;20052;-65
2023/11/24 08:30:38;;;;;;;13.75;2.90;;;;;9.00;98027.00;;;;4931781;29;20048;-65
2023/11/24 08:33:05;;;;;;;9.07;2.38;;;;;9.10;98036.00;;;;4917219;29;20048;-65
2023/11/24 08:35:31;;;;;;;9.48;2.33;;;;;9.00;98024.00;;;;4915226;29;20044;-65
2023/11/24 08:37:58;;;;;;;8.63;2.30;;;;;9.10;98026.00;;;;4915501;29;20044;-64
2023/11/24 08:40:26;;;;;;;11.88;2.78;;;;;9.10;98022.00;;;;4931497;29;20046;-65
2023/11/24 08:42:53;;;;;;;15.07;2.72;;;;;9.00;98018.00;;;;4915760;29;20044;-64
2023/11/24 08:45:20;;;;;;;11.82;2.47;;;;;8.90;98007.00;;;;4915004;29;20044;-64
2023/11/24 08:47:48;;;;;;;9.65;2.72;;;;;8.90;98006.00;;;;4915763;29;20434;-62
2023/11/24 08:50:16;;;;;;;15.20;3.50;;;;;8.80;97998.00;;;;4915828;29;20138;-64
2023/11/24 08:52:47;;;;;;;9.07;2.67;;;;;8.80;97993.00;;;;4917097;29;20095;-64
2023/11/24 08:55:14;;;;;;;10.05;2.72;;;;;8.80;98002.00;;;;4914888;29;20052;-65
2023/11/24 08:57:41;;;;;;;11.52;3.53;;;;;8.90;98004.00;;;;4917139;29;20145;-63
2023/11/24 09:00:11;;;;;;;10.70;3.22;;;;;8.90;98002.00;;;;4917588;29;20062;-64
2023/11/24 09:02:37;;;;;;;11.75;2.78;;;;;8.90;98000.00;;;;4917178;29;20079;-64
2023/11/24 09:05:05;;;;;;;11.18;2.58;;;;;9.00;97999.00;;;;4916904;29;20054;-65
2023/11/24 09:07:33;;;;;;;10.52;3.20;;;;;9.00;97990.00;;;;4916126;29;20064;-65
2023/11/24 09:10:02;;;;;;;15.30;3.10;;;;;9.20;97986.00;;;;4916457;29;20077;-65
2023/11/24 09:12:29;;;;;;;13.90;4.32;;;;;9.40;97974.00;;;;4916205;29;20060;-65
2023/11/24 09:14:56;;;;;;;14.93;4.20;;;;;9.60;97972.00;;;;4916543;29;20112;-65
2023/11/24 09:17:22;;;;;;;8.45;3.20;;;;;9.50;97975.00;;;;4915741;29;20155;-65
2023/11/24 09:19:51;;;;;;;5.68;2.28;;;;;9.40;97987.00;;;;4916788;29;20044;-64
2023/11/24 09:22:19;;;;;;;13.57;3.40;;;;;9.30;97986.00;;;;4915592;29;20130;-61
2023/11/24 09:24:46;;;;;;;8.75;2.88;;;;;9.30;97976.00;;;;4916086;29;20044;-62
2023/11/24 09:27:16;;;;;;;13.02;4.38;;;;;9.40;97963.00;;;;4915237;29;20079;-62
2023/11/24 09:29:43;;;;;;;11.95;3.50;;;;;9.40;97965.00;;;;4899673;29;20052;-62
2023/11/24 09:32:09;;;;;;;11.43;4.10;;;;;9.30;97956.00;;;;4916276;29;20111;-64
2023/11/24 09:34:38;;;;;;;10.30;2.78;;;;;9.30;97953.00;;;;4915409;29;20044;-64
2023/11/24 09:37:05;;;;;;;6.68;2.67;;;;;9.40;97953.00;;;;4914986;29;20057;-64
2023/11/24 09:39:32;;;;;;;10.70;2.97;;;;;9.30;97949.00;;;;4916321;29;20468;-64
2023/11/24 09:42:01;;;;;;;8.95;3.08;;;;;9.30;97950.00;;;;4915086;29;20095;-64
2023/11/24 09:44:29;;;;;;;14.75;4.18;;;;;9.30;97936.00;;;;4915713;29;20119;-64
2023/11/24 09:46:57;;;;;;;10.30;3.00;;;;;9.30;97937.00;;;;4915393;29;20413;-64
2023/11/24 09:49:25;;;;;;;12.00;3.80;;;;;9.30;97938.00;;;;4916354;29;20044;-64
2023/11/24 09:51:52;;;;;;;9.02;2.95;;;;;9.30;97934.00;;;;4915027;29;20068;-64
2023/11/24 09:54:20;;;;;;;9.30;2.78;;;;;9.30;97932.00;;;;4914468;29;20123;-64
2023/11/24 09:56:48;;;;;;;10.90;3.17;;;;;9.30;97938.00;;;;4915377;29;20139;-64
2023/11/24 09:59:14;;;;;;;5.60;2.67;;;;;9.20;97935.00;;;;4915730;29;20048;-64
2023/11/24 10:01:42;;;;;;;8.55;2.67;;;;;9.20;97939.00;;;;4916438;29;20139;-64
2023/11/24 10:04:10;;;;;;;13.85;2.47;;;;;9.20;97930.00;;;;4914462;29;20052;-64
2023/11/24 10:06:39;;;;;;;10.43;2.70;;;;;9.20;97918.00;;;;4915775;29;20044;-64
2023/11/24 10:09:06;;;;;;;10.45;2.60;;;;;9.20;97921.00;;;;4914821;29;20121;-63
2023/11/24 10:11:35;;;;;;;12.00;3.60;;;;;9.10;97908.00;;;;4916056;29;20123;-64
2023/11/24 10:14:04;;;;;;;14.00;2.40;;;;;9.20;97894.00;;;;4916692;29;20044;-64
2023/11/24 10:16:31;;;;;;;7.25;1.77;;;;;9.10;97895.00;;;;4919548;29;20044;-65
2023/11/24 10:19:00;;;;;;;9.18;2.67;;;;;9.10;97885.00;;;;4918727;29;20412;-63
2023/11/24 10:21:28;;;;;;;6.25;2.45;;;;;9.10;97878.00;;;;4919729;29;20048;-64
2023/11/24 10:24:00;;;;;;;7.07;2.25;;;;;9.20;97878.00;;;;4918048;29;20515;-64
2023/11/24 10:26:27;;;;;;;9.90;2.70;;;;;9.10;97891.00;;;;4919365;29;20051;-64
2023/11/24 10:28:55;;;;;;;8.55;2.88;;;;;9.00;97876.00;;;;4919063;29;20052;-65
2023/11/24 10:31:22;;;;;;;7.32;3.10;;;;;9.00;97879.00;;;;4919296;29;20054;-64
2023/11/24 10:33:49;;;;;;;5.20;1.75;;;;;8.90;97880.00;;;;4918757;29;20132;-64
2023/11/24 10:36:17;;;;;;;5.70;1.55;;;;;8.70;97860.00;;;;4917874;29;20054;-64
2023/11/24 10:38:46;;;;;;;4.80;1.38;;;;;8.60;97858.00;;;;4919333;29;20067;-64
2023/11/24 10:41:18;;;;;;;4.68;1.85;;;;;8.60;97861.00;;;;4917602;29;20048;-64
2023/11/24 10:43:49;;;;;;;6.93;1.55;;;;;8.70;97867.00;;;;4917142;29;20155;-65
2023/11/24 10:46:18;;;;;;;5.40;1.50;;;;;8.80;97857.00;;;;4918711;29;20044;-65
2023/11/24 10:48:59;;;;;;;9.07;1.83;;;;;8.80;97857.00;;;;4918633;29;20156;-65
2023/11/24 10:51:42;;;;;;;4.90;1.90;;;;;8.90;97854.00;;;;4919025;29;20063;-65
2023/11/24 10:54:16;;;;;;;5.68;1.63;;;;;8.90;97847.00;;;;4918390;29;20048;-65
2023/11/24 10:56:43;;;;;;;4.25;1.67;;;;;8.90;97836.00;;;;4918740;29;20059;-65
2023/11/24 10:59:14;;;;;;;6.60;1.40;;;;;9.00;97842.00;;;;4917826;29;20130;-65
2023/11/24 11:01:40;;;;;;;7.47;1.73;;;;;9.10;97838.00;;;;4918777;29;20123;-65
2023/11/24 11:04:07;;;;;;;4.70;1.48;;;;;9.10;97846.00;;;;4918357;29;20075;-65
2023/11/24 11:06:48;;;;;;;7.18;1.90;;;;;9.10;97848.00;;;;4918592;29;20044;-65
2023/11/24 11:12:19;;;;;;;9.82;1.63;;;;;9.00;97842.00;;;;4918517;29;20044;-64
2023/11/24 11:14:47;;;;;;;4.35;1.52;;;;;8.90;97833.00;;;;4916885;29;20068;-65
2023/11/24 11:17:17;;;;;;;10.40;2.13;;;;;8.90;97835.00;;;;4932919;29;20144;-65
2023/11/24 11:20:02;;;;;;;7.38;2.17;;;;;8.90;97833.00;;;;4917208;29;20131;-65
2023/11/24 11:22:36;;;;;;;9.75;2.08;;;;;8.90;97838.00;;;;4918454;29;20056;-65
2023/11/24 11:25:13;;;;;;;8.95;1.65;;;;;8.90;97830.00;;;;4915720;29;20518;-65
2023/11/24 11:27:45;;;;;;;6.45;1.80;;;;;8.90;97826.00;;;;4918300;29;20557;-65
2023/11/24 11:30:27;;;;;;;7.03;2.38;;;;;8.90;97827.00;;;;4918908;29;20060;-65
2023/11/24 11:33:15;;;;;;;7.47;2.33;;;;;8.80;97824.00;;;;4932835;29;20052;-66
2023/11/24 11:35:42;;;;;;;8.15;2.03;;;;;8.80;97824.00;;;;4917410;29;20055;-65
2023/11/24 11:38:12;;;;;;;6.10;1.88;;;;;8.70;97813.00;;;;4918119;29;20131;-65
2023/11/24 11:40:44;;;;;;;5.85;1.80;;;;;8.60;97814.00;;;;4918158;29;20044;-65
2023/11/24 11:43:15;;;;;;;12.00;2.13;;;;;8.60;97821.00;;;;4918076;29;20223;-65
2023/11/24 11:45:57;;;;;;;7.13;1.80;;;;;8.40;97810.00;;;;4917656;29;20052;-66
2023/11/24 11:48:28;;;;;;;5.00;2.03;;;;;8.30;97803.00;;;;4918819;29;20087;-65
2023/11/24 11:50:57;;;;;;;6.10;1.63;;;;;8.30;97787.00;;;;4901093;29;20157;-63
2023/11/24 11:53:29;;;;;;;5.65;1.70;;;;;8.30;97780.00;;;;4917467;29;20052;-64
2023/11/24 11:55:57;;;;;;;5.50;1.88;;;;;8.30;97786.00;;;;4917922;29;20114;-64
2023/11/24 11:58:25;;;;;;;4.13;1.73;;;;;8.30;97777.00;;;;4917705;29;20502;-63
2023/11/24 12:00:53;;;;;;;4.03;1.58;;;;;8.30;97761.00;;;;4916582;29;20052;-63
2023/11/24 12:03:22;;;;;;;6.70;2.50;;;;;8.40;97769.00;;;;4917486;29;20048;-63
2023/11/24 12:05:52;;;;;;;6.72;2.10;;;;;8.50;97765.00;;;;4917916;29;20074;-64
2023/11/24 12:08:22;;;;;;;6.00;1.83;;;;;8.50;97769.00;;;;4932139;29;20079;-64
2023/11/24 12:10:49;;;;;;;6.20;1.50;;;;;8.50;97757.00;;;;4916334;29;20146;-65
2023/11/24 12:13:15;;;;;;;4.70;1.65;;;;;8.50;97766.00;;;;4917454;29;20043;-64
2023/11/24 12:15:42;;;;;;;7.30;2.70;;;;;8.40;97757.00;;;;4916852;29;20099;-65
2023/11/24 12:18:15;;;;;;;6.15;2.20;;;;;8.40;97755.00;;;;4916346;29;20462;-65
2023/11/24 12:20:44;;;;;;;7.03;1.73;;;;;8.40;97749.00;;;;4916565;29;20486;-64
2023/11/24 12:23:13;;;;;;;4.30;1.52;;;;;8.40;97756.00;;;;4917245;29;20292;-64
2023/11/24 12:25:41;;;;;;;8.70;2.63;;;;;8.30;97755.00;;;;4915543;29;20121;-64
2023/11/24 12:28:12;;;;;;;6.72;1.70;;;;;8.30;97744.00;;;;4915985;29;20048;-65